sensor_id;sensor_type;location;lat;lon;timestamp;P1;durP1;ratioP1;P2;durP2;ratioP2
84260;SDS011;74405;44.868;18.808;2024-02-23T00:02:05;12.00;;;6.60;;
84260;SDS011;74405;44.868;18.808;2024-02-23T00:04:30;9.75;;;6.43;;
84260;SDS011;74405;44.868;18.808;2024-02-23T00:06:56;11.68;;;6.70;;
84260;SDS011;74405;44.868;18.808;2024-02-23T00:09:21;9.40;;;5.72;;
84260;SDS011;74405;44.868;18.808;2024-02-23T00:11:47;10.60;;;6.43;;
84260;SDS011;74405;44.868;18.808;2024-02-23T00:14:15;11.50;;;6.53;;
84260;SDS011;74405;44.868;18.808;2024-02-23T00:16:40;9.23;;;5.93;;
84260;SDS011;74405;44.868;18.808;2024-02-23T00:19:09;11.25;;;6.07;;
84260;SDS011;74405;44.868;18.808;2024-02-23T00:21:35;10.32;;;6.20;;
84260;SDS011;74405;44.868;18.808;2024-02-23T00:24:01;9.98;;;6.25;;
84260;SDS011;74405;44.868;18.808;2024-02-23T00:26:26;9.98;;;5.97;;
84260;SDS011;74405;44.868;18.808;2024-02-23T00:28:54;10.93;;;6.07;;
84260;SDS011;74405;44.868;18.808;2024-02-23T00:31:19;10.07;;;6.35;;
84260;SDS011;74405;44.868;18.808;2024-02-23T00:33:45;11.35;;;6.85;;
84260;SDS011;74405;44.868;18.808;2024-02-23T00:36:10;10.43;;;5.70;;
84260;SDS011;74405;44.868;18.808;2024-02-23T00:38:36;11.30;;;6.60;;
84260;SDS011;74405;44.868;18.808;2024-02-23T00:41:01;9.10;;;6.10;;
84260;SDS011;74405;44.868;18.808;2024-02-23T00:43:27;11.27;;;6.80;;
84260;SDS011;74405;44.868;18.808;2024-02-23T00:45:55;10.32;;;6.20;;
84260;SDS011;74405;44.868;18.808;2024-02-23T00:48:20;11.32;;;6.47;;
84260;SDS011;74405;44.868;18.808;2024-02-23T00:50:46;11.60;;;7.20;;
84260;SDS011;74405;44.868;18.808;2024-02-23T00:53:11;9.70;;;6.03;;
84260;SDS011;74405;44.868;18.808;2024-02-23T00:55:37;10.43;;;6.35;;
84260;SDS011;74405;44.868;18.808;2024-02-23T00:58:02;12.73;;;6.88;;
84260;SDS011;74405;44.868;18.808;2024-02-23T01:00:28;12.20;;;7.05;;
84260;SDS011;74405;44.868;18.808;2024-02-23T01:02:54;10.25;;;6.43;;
84260;SDS011;74405;44.868;18.808;2024-02-23T01:05:19;10.38;;;6.30;;
84260;SDS011;74405;44.868;18.808;2024-02-23T01:07:45;9.57;;;6.22;;
84260;SDS011;74405;44.868;18.808;2024-02-23T01:10:10;10.00;;;6.45;;
84260;SDS011;74405;44.868;18.808;2024-02-23T01:12:36;8.30;;;5.80;;
84260;SDS011;74405;44.868;18.808;2024-02-23T01:15:02;12.52;;;6.75;;
84260;SDS011;74405;44.868;18.808;2024-02-23T01:17:27;10.43;;;6.43;;
84260;SDS011;74405;44.868;18.808;2024-02-23T01:19:53;10.73;;;6.47;;
84260;SDS011;74405;44.868;18.808;2024-02-23T01:22:18;14.70;;;7.68;;
84260;SDS011;74405;44.868;18.808;2024-02-23T01:24:44;12.63;;;7.35;;
84260;SDS011;74405;44.868;18.808;2024-02-23T01:27:09;13.63;;;6.97;;
84260;SDS011;74405;44.868;18.808;2024-02-23T01:29:35;9.45;;;7.25;;
84260;SDS011;74405;44.868;18.808;2024-02-23T01:32:00;14.48;;;8.40;;
84260;SDS011;74405;44.868;18.808;2024-02-23T01:34:26;14.98;;;8.20;;
84260;SDS011;74405;44.868;18.808;2024-02-23T01:36:52;12.80;;;7.68;;
84260;SDS011;74405;44.868;18.808;2024-02-23T01:39:17;14.90;;;8.38;;
84260;SDS011;74405;44.868;18.808;2024-02-23T01:41:42;15.52;;;7.97;;
84260;SDS011;74405;44.868;18.808;2024-02-23T01:44:09;14.88;;;7.75;;
84260;SDS011;74405;44.868;18.808;2024-02-23T01:46:35;14.95;;;8.20;;
84260;SDS011;74405;44.868;18.808;2024-02-23T01:49:01;14.95;;;7.82;;
84260;SDS011;74405;44.868;18.808;2024-02-23T01:51:26;12.85;;;7.47;;
84260;SDS011;74405;44.868;18.808;2024-02-23T01:53:52;12.35;;;7.20;;
84260;SDS011;74405;44.868;18.808;2024-02-23T01:56:17;11.93;;;6.82;;
84260;SDS011;74405;44.868;18.808;2024-02-23T01:58:43;14.27;;;7.35;;
84260;SDS011;74405;44.868;18.808;2024-02-23T02:01:08;13.40;;;7.00;;
84260;SDS011;74405;44.868;18.808;2024-02-23T02:03:34;10.25;;;6.47;;
84260;SDS011;74405;44.868;18.808;2024-02-23T02:06:00;7.90;;;5.63;;
84260;SDS011;74405;44.868;18.808;2024-02-23T02:08:26;7.70;;;5.22;;
84260;SDS011;74405;44.868;18.808;2024-02-23T02:10:51;8.93;;;5.25;;
84260;SDS011;74405;44.868;18.808;2024-02-23T02:13:16;9.43;;;5.60;;
84260;SDS011;74405;44.868;18.808;2024-02-23T02:15:42;7.55;;;5.00;;
84260;SDS011;74405;44.868;18.808;2024-02-23T02:18:09;9.20;;;4.93;;
84260;SDS011;74405;44.868;18.808;2024-02-23T02:20:35;11.23;;;5.95;;
84260;SDS011;74405;44.868;18.808;2024-02-23T02:23:01;9.98;;;5.43;;
84260;SDS011;74405;44.868;18.808;2024-02-23T02:25:26;8.32;;;5.57;;
84260;SDS011;74405;44.868;18.808;2024-02-23T02:27:52;8.30;;;4.93;;
84260;SDS011;74405;44.868;18.808;2024-02-23T02:30:17;11.63;;;6.30;;
84260;SDS011;74405;44.868;18.808;2024-02-23T02:32:43;10.80;;;6.63;;
84260;SDS011;74405;44.868;18.808;2024-02-23T02:35:10;8.57;;;5.53;;
84260;SDS011;74405;44.868;18.808;2024-02-23T02:37:36;9.88;;;6.00;;
84260;SDS011;74405;44.868;18.808;2024-02-23T02:40:01;9.73;;;5.90;;
84260;SDS011;74405;44.868;18.808;2024-02-23T02:42:28;8.25;;;6.90;;
84260;SDS011;74405;44.868;18.808;2024-02-23T02:44:54;10.65;;;6.75;;
84260;SDS011;74405;44.868;18.808;2024-02-23T02:47:19;10.35;;;7.10;;
84260;SDS011;74405;44.868;18.808;2024-02-23T02:49:44;11.70;;;7.70;;
84260;SDS011;74405;44.868;18.808;2024-02-23T02:52:10;11.00;;;6.45;;
84260;SDS011;74405;44.868;18.808;2024-02-23T02:54:36;9.95;;;6.43;;
84260;SDS011;74405;44.868;18.808;2024-02-23T02:57:01;7.85;;;5.53;;
84260;SDS011;74405;44.868;18.808;2024-02-23T02:59:26;12.88;;;6.60;;
84260;SDS011;74405;44.868;18.808;2024-02-23T03:01:52;11.32;;;6.63;;
84260;SDS011;74405;44.868;18.808;2024-02-23T03:04:17;10.38;;;6.40;;
84260;SDS011;74405;44.868;18.808;2024-02-23T03:06:43;9.85;;;6.15;;
84260;SDS011;74405;44.868;18.808;2024-02-23T03:09:08;10.07;;;6.38;;
84260;SDS011;74405;44.868;18.808;2024-02-23T03:11:34;10.70;;;6.40;;
84260;SDS011;74405;44.868;18.808;2024-02-23T03:13:59;7.75;;;5.05;;
84260;SDS011;74405;44.868;18.808;2024-02-23T03:16:25;6.78;;;4.95;;
84260;SDS011;74405;44.868;18.808;2024-02-23T03:18:51;6.07;;;4.55;;
84260;SDS011;74405;44.868;18.808;2024-02-23T03:21:17;7.57;;;4.70;;
84260;SDS011;74405;44.868;18.808;2024-02-23T03:23:42;7.00;;;4.95;;
84260;SDS011;74405;44.868;18.808;2024-02-23T03:26:08;7.00;;;4.63;;
84260;SDS011;74405;44.868;18.808;2024-02-23T03:28:33;7.95;;;4.88;;
84260;SDS011;74405;44.868;18.808;2024-02-23T03:31:02;8.38;;;5.10;;
84260;SDS011;74405;44.868;18.808;2024-02-23T03:33:27;10.20;;;6.20;;
84260;SDS011;74405;44.868;18.808;2024-02-23T03:35:53;11.25;;;6.07;;
84260;SDS011;74405;44.868;18.808;2024-02-23T03:38:18;7.80;;;5.80;;
84260;SDS011;74405;44.868;18.808;2024-02-23T03:40:43;7.93;;;5.57;;
84260;SDS011;74405;44.868;18.808;2024-02-23T03:43:09;7.50;;;4.57;;
84260;SDS011;74405;44.868;18.808;2024-02-23T03:45:34;8.90;;;5.85;;
84260;SDS011;74405;44.868;18.808;2024-02-23T03:48:00;11.65;;;7.18;;
84260;SDS011;74405;44.868;18.808;2024-02-23T03:50:27;15.70;;;7.10;;
84260;SDS011;74405;44.868;18.808;2024-02-23T03:52:53;12.48;;;7.18;;
84260;SDS011;74405;44.868;18.808;2024-02-23T03:55:18;11.65;;;6.65;;
84260;SDS011;74405;44.868;18.808;2024-02-23T03:57:44;10.05;;;6.03;;
84260;SDS011;74405;44.868;18.808;2024-02-23T04:00:09;7.90;;;5.72;;
84260;SDS011;74405;44.868;18.808;2024-02-23T04:02:40;7.20;;;5.25;;
84260;SDS011;74405;44.868;18.808;2024-02-23T04:05:06;8.38;;;5.55;;
84260;SDS011;74405;44.868;18.808;2024-02-23T04:07:31;7.03;;;5.25;;
84260;SDS011;74405;44.868;18.808;2024-02-23T04:09:57;10.50;;;5.65;;
84260;SDS011;74405;44.868;18.808;2024-02-23T04:12:23;8.50;;;5.50;;
84260;SDS011;74405;44.868;18.808;2024-02-23T04:14:48;6.47;;;4.88;;
84260;SDS011;74405;44.868;18.808;2024-02-23T04:17:14;8.60;;;5.68;;
84260;SDS011;74405;44.868;18.808;2024-02-23T04:19:42;8.43;;;5.05;;
84260;SDS011;74405;44.868;18.808;2024-02-23T04:22:08;5.72;;;4.75;;
84260;SDS011;74405;44.868;18.808;2024-02-23T04:24:39;6.78;;;5.18;;
84260;SDS011;74405;44.868;18.808;2024-02-23T04:27:05;7.60;;;5.00;;
84260;SDS011;74405;44.868;18.808;2024-02-23T04:29:31;6.28;;;4.55;;
84260;SDS011;74405;44.868;18.808;2024-02-23T04:31:57;6.80;;;5.35;;
84260;SDS011;74405;44.868;18.808;2024-02-23T04:34:23;8.07;;;5.10;;
84260;SDS011;74405;44.868;18.808;2024-02-23T04:36:48;9.32;;;5.55;;
84260;SDS011;74405;44.868;18.808;2024-02-23T04:39:14;6.95;;;4.85;;
84260;SDS011;74405;44.868;18.808;2024-02-23T04:41:39;8.43;;;5.65;;
84260;SDS011;74405;44.868;18.808;2024-02-23T04:44:05;6.85;;;5.40;;
84260;SDS011;74405;44.868;18.808;2024-02-23T04:46:31;6.50;;;5.00;;
84260;SDS011;74405;44.868;18.808;2024-02-23T04:48:59;8.02;;;4.95;;
84260;SDS011;74405;44.868;18.808;2024-02-23T04:51:25;7.43;;;5.35;;
84260;SDS011;74405;44.868;18.808;2024-02-23T04:53:50;7.80;;;4.93;;
84260;SDS011;74405;44.868;18.808;2024-02-23T04:56:15;6.93;;;5.07;;
84260;SDS011;74405;44.868;18.808;2024-02-23T04:58:42;5.95;;;4.82;;
84260;SDS011;74405;44.868;18.808;2024-02-23T05:01:08;7.15;;;4.47;;
84260;SDS011;74405;44.868;18.808;2024-02-23T05:03:34;6.90;;;4.78;;
84260;SDS011;74405;44.868;18.808;2024-02-23T05:05:59;6.90;;;5.32;;
84260;SDS011;74405;44.868;18.808;2024-02-23T05:08:25;5.75;;;4.65;;
84260;SDS011;74405;44.868;18.808;2024-02-23T05:10:52;6.32;;;4.80;;
84260;SDS011;74405;44.868;18.808;2024-02-23T05:13:18;6.93;;;5.00;;
84260;SDS011;74405;44.868;18.808;2024-02-23T05:15:43;8.70;;;5.45;;
84260;SDS011;74405;44.868;18.808;2024-02-23T05:18:09;9.90;;;6.88;;
84260;SDS011;74405;44.868;18.808;2024-02-23T05:20:34;10.82;;;6.80;;
84260;SDS011;74405;44.868;18.808;2024-02-23T05:22:59;10.68;;;6.72;;
84260;SDS011;74405;44.868;18.808;2024-02-23T05:25:26;10.32;;;6.70;;
84260;SDS011;74405;44.868;18.808;2024-02-23T05:27:52;10.27;;;5.78;;
84260;SDS011;74405;44.868;18.808;2024-02-23T05:30:17;10.63;;;6.05;;
84260;SDS011;74405;44.868;18.808;2024-02-23T05:32:43;8.23;;;5.72;;
84260;SDS011;74405;44.868;18.808;2024-02-23T05:35:08;9.50;;;6.32;;
84260;SDS011;74405;44.868;18.808;2024-02-23T05:37:34;10.50;;;6.47;;
84260;SDS011;74405;44.868;18.808;2024-02-23T05:40:00;11.40;;;6.60;;
84260;SDS011;74405;44.868;18.808;2024-02-23T05:42:28;10.68;;;6.53;;
84260;SDS011;74405;44.868;18.808;2024-02-23T05:44:54;7.93;;;5.78;;
84260;SDS011;74405;44.868;18.808;2024-02-23T05:47:19;7.55;;;5.88;;
84260;SDS011;74405;44.868;18.808;2024-02-23T05:49:46;9.90;;;7.00;;
84260;SDS011;74405;44.868;18.808;2024-02-23T05:52:12;9.80;;;6.45;;
84260;SDS011;74405;44.868;18.808;2024-02-23T05:54:37;10.27;;;6.85;;
84260;SDS011;74405;44.868;18.808;2024-02-23T05:57:03;11.50;;;7.50;;
84260;SDS011;74405;44.868;18.808;2024-02-23T05:59:29;17.48;;;12.45;;
84260;SDS011;74405;44.868;18.808;2024-02-23T06:01:54;10.30;;;8.15;;
84260;SDS011;74405;44.868;18.808;2024-02-23T06:04:22;12.38;;;8.45;;
84260;SDS011;74405;44.868;18.808;2024-02-23T06:06:48;18.00;;;11.10;;
84260;SDS011;74405;44.868;18.808;2024-02-23T06:09:13;19.80;;;10.15;;
84260;SDS011;74405;44.868;18.808;2024-02-23T06:11:39;20.13;;;10.85;;
84260;SDS011;74405;44.868;18.808;2024-02-23T06:14:04;53.03;;;35.67;;
84260;SDS011;74405;44.868;18.808;2024-02-23T06:16:30;50.30;;;30.80;;
84260;SDS011;74405;44.868;18.808;2024-02-23T06:18:55;27.73;;;17.35;;
84260;SDS011;74405;44.868;18.808;2024-02-23T06:21:21;35.30;;;21.85;;
84260;SDS011;74405;44.868;18.808;2024-02-23T06:23:46;25.55;;;14.88;;
84260;SDS011;74405;44.868;18.808;2024-02-23T06:26:12;30.92;;;17.17;;
84260;SDS011;74405;44.868;18.808;2024-02-23T06:28:42;26.30;;;15.32;;
84260;SDS011;74405;44.868;18.808;2024-02-23T06:31:08;23.13;;;14.73;;
84260;SDS011;74405;44.868;18.808;2024-02-23T06:33:33;25.17;;;15.25;;
84260;SDS011;74405;44.868;18.808;2024-02-23T06:35:59;24.00;;;14.38;;
84260;SDS011;74405;44.868;18.808;2024-02-23T06:38:25;27.63;;;15.52;;
84260;SDS011;74405;44.868;18.808;2024-02-23T06:40:51;23.98;;;14.65;;
84260;SDS011;74405;44.868;18.808;2024-02-23T06:43:16;27.25;;;18.63;;
84260;SDS011;74405;44.868;18.808;2024-02-23T06:45:42;33.40;;;22.48;;
84260;SDS011;74405;44.868;18.808;2024-02-23T06:48:08;31.85;;;19.65;;
84260;SDS011;74405;44.868;18.808;2024-02-23T06:50:34;29.23;;;19.63;;
84260;SDS011;74405;44.868;18.808;2024-02-23T06:53:00;27.27;;;19.50;;
84260;SDS011;74405;44.868;18.808;2024-02-23T06:55:25;26.13;;;19.05;;
84260;SDS011;74405;44.868;18.808;2024-02-23T06:57:51;21.88;;;18.27;;
84260;SDS011;74405;44.868;18.808;2024-02-23T07:00:17;30.38;;;20.50;;
84260;SDS011;74405;44.868;18.808;2024-02-23T07:02:42;31.40;;;22.38;;
84260;SDS011;74405;44.868;18.808;2024-02-23T07:05:08;28.88;;;19.77;;
84260;SDS011;74405;44.868;18.808;2024-02-23T07:07:34;27.83;;;19.40;;
84260;SDS011;74405;44.868;18.808;2024-02-23T07:09:59;32.58;;;23.55;;
84260;SDS011;74405;44.868;18.808;2024-02-23T07:12:25;52.65;;;27.35;;
84260;SDS011;74405;44.868;18.808;2024-02-23T07:14:53;39.97;;;25.70;;
84260;SDS011;74405;44.868;18.808;2024-02-23T07:17:18;38.58;;;24.85;;
84260;SDS011;74405;44.868;18.808;2024-02-23T07:19:44;38.55;;;24.52;;
84260;SDS011;74405;44.868;18.808;2024-02-23T07:22:10;42.70;;;26.75;;
84260;SDS011;74405;44.868;18.808;2024-02-23T07:24:39;34.60;;;22.27;;
84260;SDS011;74405;44.868;18.808;2024-02-23T07:27:05;32.28;;;20.98;;
84260;SDS011;74405;44.868;18.808;2024-02-23T07:29:30;33.65;;;22.15;;
84260;SDS011;74405;44.868;18.808;2024-02-23T07:31:56;39.92;;;23.30;;
84260;SDS011;74405;44.868;18.808;2024-02-23T07:34:21;27.83;;;18.58;;
84260;SDS011;74405;44.868;18.808;2024-02-23T07:36:47;36.53;;;21.98;;
84260;SDS011;74405;44.868;18.808;2024-02-23T07:39:13;40.17;;;27.08;;
84260;SDS011;74405;44.868;18.808;2024-02-23T07:41:39;38.75;;;24.67;;
84260;SDS011;74405;44.868;18.808;2024-02-23T07:44:06;40.40;;;24.17;;
84260;SDS011;74405;44.868;18.808;2024-02-23T07:46:31;39.90;;;22.30;;
84260;SDS011;74405;44.868;18.808;2024-02-23T07:48:57;45.25;;;25.65;;
84260;SDS011;74405;44.868;18.808;2024-02-23T07:51:22;35.35;;;20.80;;
84260;SDS011;74405;44.868;18.808;2024-02-23T07:53:48;45.67;;;22.63;;
84260;SDS011;74405;44.868;18.808;2024-02-23T07:56:13;31.63;;;21.17;;
84260;SDS011;74405;44.868;18.808;2024-02-23T07:58:39;30.73;;;20.48;;
84260;SDS011;74405;44.868;18.808;2024-02-23T08:01:04;26.30;;;17.92;;
84260;SDS011;74405;44.868;18.808;2024-02-23T08:03:30;24.10;;;15.98;;
84260;SDS011;74405;44.868;18.808;2024-02-23T08:05:55;24.63;;;13.75;;
84260;SDS011;74405;44.868;18.808;2024-02-23T08:08:21;24.17;;;12.90;;
84260;SDS011;74405;44.868;18.808;2024-02-23T08:10:49;25.13;;;15.05;;
84260;SDS011;74405;44.868;18.808;2024-02-23T08:13:14;18.40;;;13.18;;
84260;SDS011;74405;44.868;18.808;2024-02-23T08:15:40;23.20;;;13.23;;
84260;SDS011;74405;44.868;18.808;2024-02-23T08:18:06;21.13;;;14.40;;
84260;SDS011;74405;44.868;18.808;2024-02-23T08:20:31;14.45;;;9.20;;
84260;SDS011;74405;44.868;18.808;2024-02-23T08:22:57;13.85;;;9.10;;
84260;SDS011;74405;44.868;18.808;2024-02-23T08:25:22;18.13;;;12.68;;
84260;SDS011;74405;44.868;18.808;2024-02-23T08:27:48;18.13;;;10.95;;
84260;SDS011;74405;44.868;18.808;2024-02-23T08:30:14;9.60;;;7.70;;
84260;SDS011;74405;44.868;18.808;2024-02-23T08:32:42;14.90;;;8.15;;
84260;SDS011;74405;44.868;18.808;2024-02-23T08:35:08;14.98;;;10.25;;
84260;SDS011;74405;44.868;18.808;2024-02-23T08:37:34;11.52;;;7.80;;
84260;SDS011;74405;44.868;18.808;2024-02-23T08:39:59;8.35;;;5.70;;
84260;SDS011;74405;44.868;18.808;2024-02-23T08:42:25;8.90;;;5.53;;
84260;SDS011;74405;44.868;18.808;2024-02-23T08:44:50;9.15;;;6.10;;
84260;SDS011;74405;44.868;18.808;2024-02-23T08:47:16;7.88;;;5.43;;
84260;SDS011;74405;44.868;18.808;2024-02-23T08:49:42;9.88;;;5.43;;
84260;SDS011;74405;44.868;18.808;2024-02-23T08:52:07;9.82;;;6.43;;
84260;SDS011;74405;44.868;18.808;2024-02-23T08:54:33;10.10;;;4.75;;
84260;SDS011;74405;44.868;18.808;2024-02-23T08:56:58;9.38;;;4.78;;
84260;SDS011;74405;44.868;18.808;2024-02-23T08:59:24;10.27;;;6.57;;
84260;SDS011;74405;44.868;18.808;2024-02-23T09:01:49;16.15;;;6.53;;
84260;SDS011;74405;44.868;18.808;2024-02-23T09:04:15;9.63;;;5.28;;
84260;SDS011;74405;44.868;18.808;2024-02-23T09:06:42;5.80;;;4.47;;
84260;SDS011;74405;44.868;18.808;2024-02-23T09:09:08;9.25;;;5.05;;
84260;SDS011;74405;44.868;18.808;2024-02-23T09:11:33;6.72;;;4.20;;
84260;SDS011;74405;44.868;18.808;2024-02-23T09:13:59;8.15;;;5.25;;
84260;SDS011;74405;44.868;18.808;2024-02-23T09:16:24;7.65;;;4.22;;
84260;SDS011;74405;44.868;18.808;2024-02-23T09:18:50;6.05;;;4.13;;
84260;SDS011;74405;44.868;18.808;2024-02-23T09:21:16;9.18;;;5.00;;
84260;SDS011;74405;44.868;18.808;2024-02-23T09:23:41;7.72;;;5.13;;
84260;SDS011;74405;44.868;18.808;2024-02-23T09:26:10;6.72;;;4.13;;
84260;SDS011;74405;44.868;18.808;2024-02-23T09:28:39;8.20;;;5.72;;
84260;SDS011;74405;44.868;18.808;2024-02-23T09:31:10;9.73;;;5.80;;
84260;SDS011;74405;44.868;18.808;2024-02-23T09:33:35;9.43;;;5.88;;
84260;SDS011;74405;44.868;18.808;2024-02-23T09:36:02;11.10;;;6.55;;
84260;SDS011;74405;44.868;18.808;2024-02-23T09:38:27;7.70;;;4.68;;
84260;SDS011;74405;44.868;18.808;2024-02-23T09:40:53;9.13;;;6.38;;
84260;SDS011;74405;44.868;18.808;2024-02-23T09:43:20;5.43;;;4.25;;
84260;SDS011;74405;44.868;18.808;2024-02-23T09:45:47;10.88;;;6.80;;
84260;SDS011;74405;44.868;18.808;2024-02-23T09:48:13;7.10;;;5.03;;
84260;SDS011;74405;44.868;18.808;2024-02-23T09:50:40;6.88;;;5.43;;
84260;SDS011;74405;44.868;18.808;2024-02-23T09:53:06;8.55;;;5.40;;
84260;SDS011;74405;44.868;18.808;2024-02-23T09:55:35;8.20;;;4.63;;
84260;SDS011;74405;44.868;18.808;2024-02-23T09:58:01;8.50;;;5.43;;
84260;SDS011;74405;44.868;18.808;2024-02-23T10:00:27;7.85;;;5.03;;
84260;SDS011;74405;44.868;18.808;2024-02-23T10:02:53;10.88;;;6.13;;
84260;SDS011;74405;44.868;18.808;2024-02-23T10:05:19;6.90;;;4.85;;
84260;SDS011;74405;44.868;18.808;2024-02-23T10:07:47;5.57;;;4.05;;
84260;SDS011;74405;44.868;18.808;2024-02-23T10:10:13;7.38;;;5.00;;
84260;SDS011;74405;44.868;18.808;2024-02-23T10:12:38;7.88;;;4.60;;
84260;SDS011;74405;44.868;18.808;2024-02-23T10:15:05;9.65;;;6.20;;
84260;SDS011;74405;44.868;18.808;2024-02-23T10:17:31;8.82;;;5.55;;
84260;SDS011;74405;44.868;18.808;2024-02-23T10:19:56;7.47;;;4.80;;
84260;SDS011;74405;44.868;18.808;2024-02-23T10:22:30;10.07;;;6.03;;
84260;SDS011;74405;44.868;18.808;2024-02-23T10:24:55;14.77;;;7.47;;
84260;SDS011;74405;44.868;18.808;2024-02-23T10:27:21;12.38;;;6.43;;
84260;SDS011;74405;44.868;18.808;2024-02-23T10:29:50;6.13;;;4.80;;
84260;SDS011;74405;44.868;18.808;2024-02-23T10:32:16;8.23;;;5.38;;
84260;SDS011;74405;44.868;18.808;2024-02-23T10:34:43;15.80;;;10.02;;
84260;SDS011;74405;44.868;18.808;2024-02-23T10:37:09;9.57;;;5.57;;
84260;SDS011;74405;44.868;18.808;2024-02-23T10:39:36;9.55;;;4.88;;
84260;SDS011;74405;44.868;18.808;2024-02-23T10:42:03;18.30;;;6.70;;
84260;SDS011;74405;44.868;18.808;2024-02-23T10:44:29;7.68;;;4.95;;
84260;SDS011;74405;44.868;18.808;2024-02-23T10:46:56;13.07;;;5.28;;
84260;SDS011;74405;44.868;18.808;2024-02-23T10:49:23;6.88;;;4.35;;
84260;SDS011;74405;44.868;18.808;2024-02-23T10:51:51;7.10;;;4.05;;
84260;SDS011;74405;44.868;18.808;2024-02-23T10:54:18;14.77;;;6.13;;
84260;SDS011;74405;44.868;18.808;2024-02-23T10:56:46;9.93;;;4.60;;
84260;SDS011;74405;44.868;18.808;2024-02-23T10:59:13;10.60;;;4.82;;
84260;SDS011;74405;44.868;18.808;2024-02-23T11:01:50;7.63;;;4.72;;
84260;SDS011;74405;44.868;18.808;2024-02-23T11:04:16;8.32;;;4.90;;
84260;SDS011;74405;44.868;18.808;2024-02-23T11:06:42;12.63;;;6.97;;
84260;SDS011;74405;44.868;18.808;2024-02-23T11:09:09;12.25;;;5.43;;
84260;SDS011;74405;44.868;18.808;2024-02-23T11:11:37;7.47;;;4.55;;
84260;SDS011;74405;44.868;18.808;2024-02-23T11:14:03;11.30;;;5.88;;
84260;SDS011;74405;44.868;18.808;2024-02-23T11:16:32;5.35;;;4.15;;
84260;SDS011;74405;44.868;18.808;2024-02-23T11:19:05;11.18;;;5.53;;
84260;SDS011;74405;44.868;18.808;2024-02-23T11:23:56;6.82;;;3.67;;
84260;SDS011;74405;44.868;18.808;2024-02-23T11:26:27;7.23;;;4.67;;
84260;SDS011;74405;44.868;18.808;2024-02-23T11:28:53;6.18;;;4.20;;
84260;SDS011;74405;44.868;18.808;2024-02-23T11:31:25;4.90;;;3.42;;
84260;SDS011;74405;44.868;18.808;2024-02-23T11:33:54;4.35;;;3.13;;
84260;SDS011;74405;44.868;18.808;2024-02-23T11:38:52;7.40;;;5.50;;
84260;SDS011;74405;44.868;18.808;2024-02-23T11:41:18;5.38;;;3.53;;
84260;SDS011;74405;44.868;18.808;2024-02-23T11:43:44;8.15;;;5.63;;
84260;SDS011;74405;44.868;18.808;2024-02-23T11:46:11;7.25;;;6.55;;
84260;SDS011;74405;44.868;18.808;2024-02-23T11:48:37;6.15;;;5.28;;
84260;SDS011;74405;44.868;18.808;2024-02-23T11:51:03;6.32;;;4.35;;
84260;SDS011;74405;44.868;18.808;2024-02-23T11:53:29;5.75;;;4.60;;
84260;SDS011;74405;44.868;18.808;2024-02-23T11:55:55;6.85;;;4.40;;
84260;SDS011;74405;44.868;18.808;2024-02-23T11:58:20;8.70;;;4.85;;
84260;SDS011;74405;44.868;18.808;2024-02-23T12:00:46;7.30;;;5.00;;
84260;SDS011;74405;44.868;18.808;2024-02-23T12:03:11;8.73;;;4.70;;
84260;SDS011;74405;44.868;18.808;2024-02-23T12:05:37;8.18;;;4.88;;
84260;SDS011;74405;44.868;18.808;2024-02-23T12:08:02;9.05;;;5.43;;
84260;SDS011;74405;44.868;18.808;2024-02-23T12:10:28;11.00;;;7.63;;
84260;SDS011;74405;44.868;18.808;2024-02-23T12:12:53;13.23;;;8.02;;
84260;SDS011;74405;44.868;18.808;2024-02-23T12:15:19;7.38;;;5.50;;
84260;SDS011;74405;44.868;18.808;2024-02-23T12:17:48;6.80;;;4.57;;
84260;SDS011;74405;44.868;18.808;2024-02-23T12:20:14;8.32;;;5.65;;
84260;SDS011;74405;44.868;18.808;2024-02-23T12:22:42;9.43;;;6.45;;
84260;SDS011;74405;44.868;18.808;2024-02-23T12:25:08;11.40;;;6.93;;
84260;SDS011;74405;44.868;18.808;2024-02-23T12:27:34;12.77;;;8.00;;
84260;SDS011;74405;44.868;18.808;2024-02-23T12:29:59;14.27;;;8.43;;
84260;SDS011;74405;44.868;18.808;2024-02-23T12:32:25;14.25;;;8.63;;
84260;SDS011;74405;44.868;18.808;2024-02-23T12:34:51;22.15;;;11.55;;
84260;SDS011;74405;44.868;18.808;2024-02-23T12:37:17;20.98;;;12.25;;
84260;SDS011;74405;44.868;18.808;2024-02-23T12:39:43;19.35;;;11.35;;
84260;SDS011;74405;44.868;18.808;2024-02-23T12:42:09;26.63;;;15.20;;
84260;SDS011;74405;44.868;18.808;2024-02-23T12:44:34;20.00;;;12.10;;
84260;SDS011;74405;44.868;18.808;2024-02-23T12:47:00;19.75;;;13.45;;
84260;SDS011;74405;44.868;18.808;2024-02-23T12:49:26;27.85;;;14.85;;
84260;SDS011;74405;44.868;18.808;2024-02-23T12:51:52;23.50;;;15.55;;
84260;SDS011;74405;44.868;18.808;2024-02-23T12:54:17;25.98;;;16.02;;
84260;SDS011;74405;44.868;18.808;2024-02-23T12:56:43;16.33;;;11.40;;
84260;SDS011;74405;44.868;18.808;2024-02-23T12:59:09;10.68;;;7.32;;
84260;SDS011;74405;44.868;18.808;2024-02-23T13:01:36;8.77;;;5.60;;
84260;SDS011;74405;44.868;18.808;2024-02-23T13:04:05;9.35;;;6.40;;
84260;SDS011;74405;44.868;18.808;2024-02-23T13:06:36;9.38;;;6.20;;
84260;SDS011;74405;44.868;18.808;2024-02-23T13:09:02;9.38;;;6.40;;
84260;SDS011;74405;44.868;18.808;2024-02-23T13:11:28;8.82;;;6.32;;
84260;SDS011;74405;44.868;18.808;2024-02-23T13:13:53;12.75;;;7.40;;
84260;SDS011;74405;44.868;18.808;2024-02-23T13:16:19;12.63;;;7.30;;
84260;SDS011;74405;44.868;18.808;2024-02-23T13:18:44;15.30;;;8.00;;
84260;SDS011;74405;44.868;18.808;2024-02-23T13:21:12;13.18;;;8.23;;
84260;SDS011;74405;44.868;18.808;2024-02-23T13:23:37;10.68;;;7.53;;
84260;SDS011;74405;44.868;18.808;2024-02-23T13:26:04;9.10;;;7.00;;
84260;SDS011;74405;44.868;18.808;2024-02-23T13:28:29;10.55;;;7.22;;
84260;SDS011;74405;44.868;18.808;2024-02-23T13:30:55;18.92;;;12.05;;
84260;SDS011;74405;44.868;18.808;2024-02-23T13:33:20;17.25;;;12.45;;
84260;SDS011;74405;44.868;18.808;2024-02-23T13:35:47;16.25;;;10.70;;
84260;SDS011;74405;44.868;18.808;2024-02-23T13:38:13;17.15;;;11.15;;
84260;SDS011;74405;44.868;18.808;2024-02-23T13:40:38;19.35;;;12.02;;
84260;SDS011;74405;44.868;18.808;2024-02-23T13:43:04;15.35;;;9.55;;
84260;SDS011;74405;44.868;18.808;2024-02-23T13:45:29;14.35;;;8.20;;
84260;SDS011;74405;44.868;18.808;2024-02-23T13:47:56;10.27;;;6.50;;
84260;SDS011;74405;44.868;18.808;2024-02-23T13:50:22;8.65;;;5.53;;
84260;SDS011;74405;44.868;18.808;2024-02-23T13:52:48;9.60;;;5.85;;
84260;SDS011;74405;44.868;18.808;2024-02-23T13:55:13;8.80;;;6.00;;
84260;SDS011;74405;44.868;18.808;2024-02-23T13:57:39;10.18;;;6.40;;
84260;SDS011;74405;44.868;18.808;2024-02-23T14:00:05;9.43;;;6.18;;
84260;SDS011;74405;44.868;18.808;2024-02-23T14:02:36;9.17;;;6.40;;
84260;SDS011;74405;44.868;18.808;2024-02-23T14:05:02;17.60;;;7.05;;
84260;SDS011;74405;44.868;18.808;2024-02-23T14:07:28;10.93;;;6.30;;
84260;SDS011;74405;44.868;18.808;2024-02-23T14:09:54;15.50;;;7.05;;
84260;SDS011;74405;44.868;18.808;2024-02-23T14:12:19;8.95;;;6.53;;
84260;SDS011;74405;44.868;18.808;2024-02-23T14:14:45;19.35;;;10.00;;
84260;SDS011;74405;44.868;18.808;2024-02-23T14:17:10;19.75;;;9.55;;
84260;SDS011;74405;44.868;18.808;2024-02-23T14:19:36;21.27;;;9.38;;
84260;SDS011;74405;44.868;18.808;2024-02-23T14:22:02;18.05;;;8.35;;